Livingston, Texas
Current Conditions -  °F | °C
As of 7:35 PM on Tuesday 25 Nov 2014 (Local Time) from K6R3 Reporting Station
Clear Clear  
Wind Chill: 42°   Ceiling: Unl
Heat Index: 42°   Visibility: 7mi
Dew Point: 41°   Wind: 0mph
Humidity: 98%   Direction: NA
Pressure: 30.24"   Gusts: NA
Location:  30.71°N, 94.94°W
Report Text: K6R3 260135Z AUTO 00000KT 7SM CLR 05/05 A3024 RMK AO2 T00540051
Loading
Personal Weather Stations






























Interactive Weather Map New forecast layout! Learn more

10-Day Weather Forecast

Advertisements
Track Severe Weather on mobile